• Join FlightAware (Why Join?)
  • Login
  • US Flag 
09:36AM EDT


 

Airport Tracker/Info


-or-


 

Live Flight TrackerFlight Track Log ✈ N8378B ✈ 01-Jun-2013 ✈ KBVY - KBVY

Flight Track Log - Related Links

Times and Time Zones

All times are in EDT time to prevent confusion due to time zone crossing. See the N8378B flight status page for this flight to view local times or setup timezone preferences in your user account.

Time Position Orientation Groundspeed Altitude Reporting Facility
EDT Latitude Longitude Course Direction KTS MPH feet Rate Location/Type
01:39PM 42.5833 -70.9333 270° West 77 89 700  Level KA90
01:40PM 42.5833 -70.9667 270° West 84 97 1,200 360 Climbing KA90
01:41PM 42.6000 -70.9833 324° Northwest 99 114 1,400 240 Climbing KA90
01:42PM 42.6333 -70.9833 360° North 116 133 1,700 240 Climbing KA90
01:43PM 42.6667 -70.9500 36° Northeast 110 127 2,000 300 Climbing KA90
01:44PM 42.6833 -70.9500 360° North 110 127 2,300 300 Climbing KA90
01:45PM 42.7167 -70.9333 20° North 115 132 2,600 300 Climbing KA90
01:46PM 42.7500 -70.9333 360° North 108 124 3,000 180 Climbing KA90
01:47PM 42.7833 -70.9333 360° North 121 139 3,000  Level KA90
01:48PM 42.8167 -70.9333 360° North 117 135 3,000 -60 Level KA90
01:49PM 42.8500 -70.9333 360° North 116 133 2,900  Descending KA90
01:50PM 42.8667 -70.9167 36° Northeast 107 123 3,000 60 Climbing KA90
01:51PM 42.9000 -70.9167 360° North 118 136 3,100  Climbing KA90
01:52PM 42.9500 -70.9167 360° North 118 136 3,100  Level KA90
01:53PM 42.9667 -70.9167 360° North 123 142 3,100 -60 Level KA90
01:54PM 43.0000 -70.9333 340° North 125 144 3,000  Descending KA90
01:55PM 43.0500 -70.9333 360° North 126 145 3,100  Climbing KA90
01:56PM 43.0833 -70.9500 340° North 134 154 3,100 -60 Level KA90
01:57PM 43.1167 -70.9500 360° North 126 145 3,000  Descending KA90
01:58PM 43.1500 -70.9667 340° North 118 136 3,100  Climbing KA90
01:59PM 43.1833 -70.9833 340° North 117 135 3,100 -60 Level KA90
02:00PM 43.2000 -70.9833 360° North 118 136 3,000 -360 Descending KA90
02:01PM 43.2333 -70.9833 360° North 137 158 2,500 -540 Descending KA90
02:02PM 43.2167 -70.9333 115° Southeast 124 143 2,000 -300 Descending KA90
02:03PM 43.2000 -70.9167 144° Southeast 104 120 2,000  Level KA90
02:04PM 43.1667 -70.9000 160° South 90 104 2,100 -300 Climbing KA90
02:05PM 43.1500 -70.8833 144° Southeast 88 101 1,500 -540 Descending KA90
02:06PM 43.1333 -70.8667 144° Southeast 87 100 1,100 -420 Descending KA90
02:07PM 43.1167 -70.8500 144° Southeast 84 97 700 -120 Descending KA90
02:09PM 43.0746 -70.8585 188° South  Level FlightAware Approximate
02:10PM 43.0667 -70.8167 188° South 84 97 700  Level KA90
02:10PM 43.0500 -70.8000 144° Southeast 80 92 1,200 480 Climbing KA90
02:11PM 43.0167 -70.8167 200° South 87 100 1,700 420 Climbing KA90
02:12PM 43.0000 -70.8333 216° Southwest 87 100 2,100 360 Climbing KA90
02:13PM 42.9833 -70.8500 216° Southwest 91 105 2,500 300 Climbing KA90
02:14PM 42.9667 -70.8667 216° Southwest 87 100 2,700 240 Climbing KA90
02:15PM 42.9333 -70.8833 200° South 98 113 3,000 120 Climbing KA90
02:16PM 42.9167 -70.9000 216° Southwest 96 110 3,000  Level KA90
02:17PM 42.9000 -70.9167 216° Southwest 92 106 3,000  Level KA90
02:18PM 42.8833 -70.9333 216° Southwest 89 102 3,000  Level KA90
02:19PM 42.8500 -70.9500 200° South 94 108 3,000 -300 Level KA90
02:20PM 42.8333 -70.9833 236° Southwest 100 115 2,500 -540 Descending KA90